Teddy Meyer — WDF9635 — position and weather

sailwx.info

Track history (hours):
 
Tides and Currents Weather Stations Pressure Air Temp Water Temp Dewpoint Dewpoint Depression Visibility Wind Speed Wind Dir Waves Ship Positions

Teddy Meyer

Owner: LeBeouf Bros. Towing, LLC, Houma, LA. More information available from US FCC via Universal Licensing System and Coast Guard Vessel Documentation Center.

Last reported at 2016-Apr-29 02:30 UTC. Time now 2016-May-03 18:17 UTC.
Position N 29°29' W 094°52'.

; draft 3 m.

MMSI: 367507220.

Date/timePositionNaut miles runAvg speedWind from/ knotsBaromVisibWave heightAir tempDewpointWater temp
2016-Apr-29 02:30N 29°29' W 094°52'7 7.2
2016-Apr-29 01:34N 29°35' W 094°56'7 7.3
2016-Apr-29 00:34N 29°41' W 094°59'6 6.3
2016-Apr-28 23:33N 29°46' W 095°05'2 0.4
2016-Apr-28 19:06N 29°45' W 095°06'0 0.1
2016-Apr-28 18:18N 29°45' W 095°06'0 0.0
2016-Apr-27 12:28N 29°45' W 095°06'0 0.0
2016-Apr-27 10:32N 29°45' W 095°06'1 0.6
2016-Apr-27 08:33N 29°46' W 095°05'3 2.7
2016-Apr-27 07:33N 29°44' W 095°03'5 5.3
2016-Apr-27 06:33N 29°40' W 094°59'7 6.6
2016-Apr-27 05:33N 29°34' W 094°56'7 7.2
2016-Apr-27 04:33N 29°28' W 094°51'11 1.7
2016-Apr-26 22:15N 29°28' W 094°39'0 0.0
2016-Apr-26 21:14N 29°28' W 094°39'0 0.0
2016-Apr-26 20:32N 29°28' W 094°39'0 0.0
2016-Apr-26 19:31N 29°28' W 094°39'56 3.1
2016-Apr-26 01:18N 30°01' W 093°46'5 5.8
2016-Apr-26 00:31N 30°03' W 093°42'5 5.2
2016-Apr-25 23:34N 30°04' W 093°36'5 4.9
2016-Apr-25 22:33N 30°04' W 093°30'5 4.9
2016-Apr-25 21:33N 30°04' W 093°25'4 3.9
2016-Apr-25 20:33N 30°05' W 093°20'4 3.5
2016-Apr-25 19:33N 30°08' W 093°20'0 0.3
2016-Apr-25 18:34N 30°08' W 093°19'0 0.0
2016-Apr-25 17:34N 30°08' W 093°19'0 0.0
2016-Apr-25 16:34N 30°08' W 093°19'0 0.0
2016-Apr-25 15:34N 30°08' W 093°19'0 0.0
2016-Apr-25 14:33N 30°08' W 093°19'0 0.0
2016-Apr-25 13:33N 30°08' W 093°19'0 0.0
2016-Apr-25 12:34N 30°08' W 093°19'0 0.0
2016-Apr-25 11:34N 30°08' W 093°19'0 0.0
2016-Apr-25 10:34N 30°08' W 093°19'0 0.0
2016-Apr-25 09:34N 30°08' W 093°19'0 0.0
2016-Apr-25 08:33N 30°08' W 093°19'0 0.0
2016-Apr-25 07:34N 30°08' W 093°19'0 0.0
2016-Apr-25 06:34N 30°08' W 093°19'0 0.0
2016-Apr-25 05:33N 30°08' W 093°19'0 0.0
2016-Apr-25 04:34N 30°08' W 093°19'0 0.0
2016-Apr-25 03:33N 30°08' W 093°19'0 0.0
2016-Apr-25 02:34N 30°08' W 093°19'0 0.0
2016-Apr-25 01:34N 30°08' W 093°19'0 0.0
2016-Apr-25 00:34N 30°08' W 093°19'0 0.1
2016-Apr-24 23:33N 30°08' W 093°19'0 0.2
2016-Apr-24 22:33N 30°08' W 093°20'0 0.0
2016-Apr-24 21:33N 30°08' W 093°20'4 3.7
2016-Apr-24 20:33N 30°04' W 093°20'2 1.8
2016-Apr-24 19:34N 30°04' W 093°22'0 0.0
2016-Apr-24 18:33N 30°04' W 093°22'0 0.0
2016-Apr-24 17:33N 30°04' W 093°22'0 0.0
2016-Apr-24 16:34N 30°04' W 093°22'0 0.0
2016-Apr-24 15:34N 30°04' W 093°22'0 0.0
2016-Apr-24 14:33N 30°04' W 093°22'0 0.0
2016-Apr-24 13:33N 30°04' W 093°22'1 1.4
2016-Apr-24 12:33N 30°04' W 093°21'3 3.1
2016-Apr-24 11:34N 30°06' W 093°18'2 2.0
2016-Apr-24 10:34N 30°05' W 093°20'2 2.4
2016-Apr-24 09:33N 30°04' W 093°22'5 5.1
2016-Apr-24 08:33N 30°04' W 093°28'6 5.7
2016-Apr-24 07:34N 30°04' W 093°35'5 5.1
2016-Apr-24 06:33N 30°04' W 093°41'4 4.4
2016-Apr-24 05:34N 30°01' W 093°45'6 4.7
2016-Apr-24 04:14N 29°58' W 093°51'1 0.1
2016-Apr-23 23:07N 29°57' W 093°52'1 1.8
2016-Apr-23 22:31N 29°56' W 093°52'56 6.9
2016-Apr-23 14:20N 29°24' W 094°45'11 6.4
2016-Apr-23 12:33N 29°32' W 094°54'10 9.6
2016-Apr-23 11:33N 29°41' W 094°59'8 7.6
2016-Apr-23 10:33N 29°45' W 095°06'1 1.3
2016-Apr-23 09:33N 29°44' W 095°08'0 0.0
2016-Apr-23 08:33N 29°44' W 095°08'0 0.0
2016-Apr-23 07:33N 29°44' W 095°08'0 0.0
2016-Apr-23 06:33N 29°44' W 095°08'0 0.0
2016-Apr-23 05:33N 29°44' W 095°08'0 0.0
2016-Apr-23 04:33N 29°44' W 095°08'0 0.0
2016-Apr-23 03:33N 29°44' W 095°08'0 0.0
2016-Apr-23 02:34N 29°44' W 095°08'0 0.0
2016-Apr-23 01:31N 29°44' W 095°08'0 0.0
2016-Apr-23 00:33N 29°44' W 095°08'0 0.0
2016-Apr-22 23:34N 29°44' W 095°08'0 0.0
2016-Apr-22 22:33N 29°44' W 095°08'0 0.1
2016-Apr-22 21:29N 29°44' W 095°08'0 0.0
2016-Apr-22 20:33N 29°44' W 095°08'0 0.0
2016-Apr-22 19:33N 29°44' W 095°08'0 0.0
2016-Apr-22 18:33N 29°44' W 095°08'0 0.0
2016-Apr-22 17:32N 29°44' W 095°08'0 0.0
2016-Apr-22 16:34N 29°44' W 095°08'0 0.0
2016-Apr-22 15:34N 29°44' W 095°08'0 0.0
2016-Apr-22 14:33N 29°44' W 095°08'0 0.0
2016-Apr-22 13:34N 29°44' W 095°08'0 0.0
2016-Apr-22 12:34N 29°44' W 095°08'0 0.0
2016-Apr-22 11:33N 29°44' W 095°08'0 0.0
2016-Apr-22 10:33N 29°44' W 095°08'0 0.0
2016-Apr-22 09:34N 29°44' W 095°08'0 0.0
2016-Apr-22 08:33N 29°44' W 095°08'0 0.0
2016-Apr-22 07:31N 29°44' W 095°08'0 0.0
2016-Apr-22 06:31N 29°44' W 095°08'0 0.0
2016-Apr-22 05:33N 29°44' W 095°08'0 0.0
2016-Apr-22 04:34N 29°44' W 095°08'0 0.0
2016-Apr-22 03:34N 29°44' W 095°08'0 0.0
2016-Apr-22 02:33N 29°44' W 095°08'0 0.0
2016-Apr-22 01:33N 29°44' W 095°08'0 0.0
2016-Apr-22 00:33N 29°44' W 095°08'0 0.0
2016-Apr-21 23:33N 29°44' W 095°08'0 0.0
2016-Apr-21 22:30N 29°44' W 095°08'3 3.5
2016-Apr-21 21:29N 29°46' W 095°04'4 4.5
2016-Apr-21 20:33N 29°42' W 095°01'5 4.8
2016-Apr-21 19:34N 29°38' W 094°58'7 7.0
2016-Apr-21 18:33N 29°32' W 094°54'7 6.4
2016-Apr-21 17:32N 29°27' W 094°50'  
Track history (hours):
 
Tides and Currents Weather Stations Pressure Air Temp Water Temp Dewpoint Dewpoint Depression Visibility Wind Speed Wind Dir Waves Ship Positions

Teddy Meyer

Owner: LeBeouf Bros. Towing, LLC, Houma, LA. More information available from US FCC via Universal Licensing System and Coast Guard Vessel Documentation Center.

Last reported at 2016-Apr-29 02:30 UTC. Time now 2016-May-03 18:17 UTC.
Position N 29°29' W 094°52'.

; draft 3 m.

MMSI: 367507220.

Date/timePositionNaut miles runAvg speedWind from/ knotsBaromVisibWave heightAir tempDewpointWater temp
2016-Apr-29 02:30N 29°29' W 094°52'7 7.2
2016-Apr-29 01:34N 29°35' W 094°56'7 7.3
2016-Apr-29 00:34N 29°41' W 094°59'6 6.3
2016-Apr-28 23:33N 29°46' W 095°05'2 0.4
2016-Apr-28 19:06N 29°45' W 095°06'0 0.1
2016-Apr-28 18:18N 29°45' W 095°06'0 0.0
2016-Apr-27 12:28N 29°45' W 095°06'0 0.0
2016-Apr-27 10:32N 29°45' W 095°06'1 0.6
2016-Apr-27 08:33N 29°46' W 095°05'3 2.7
2016-Apr-27 07:33N 29°44' W 095°03'5 5.3
2016-Apr-27 06:33N 29°40' W 094°59'7 6.6
2016-Apr-27 05:33N 29°34' W 094°56'7 7.2
2016-Apr-27 04:33N 29°28' W 094°51'11 1.7
2016-Apr-26 22:15N 29°28' W 094°39'0 0.0
2016-Apr-26 21:14N 29°28' W 094°39'0 0.0
2016-Apr-26 20:32N 29°28' W 094°39'0 0.0
2016-Apr-26 19:31N 29°28' W 094°39'56 3.1
2016-Apr-26 01:18N 30°01' W 093°46'5 5.8
2016-Apr-26 00:31N 30°03' W 093°42'5 5.2
2016-Apr-25 23:34N 30°04' W 093°36'5 4.9
2016-Apr-25 22:33N 30°04' W 093°30'5 4.9
2016-Apr-25 21:33N 30°04' W 093°25'4 3.9
2016-Apr-25 20:33N 30°05' W 093°20'4 3.5
2016-Apr-25 19:33N 30°08' W 093°20'0 0.3
2016-Apr-25 18:34N 30°08' W 093°19'0 0.0
2016-Apr-25 17:34N 30°08' W 093°19'0 0.0
2016-Apr-25 16:34N 30°08' W 093°19'0 0.0
2016-Apr-25 15:34N 30°08' W 093°19'0 0.0
2016-Apr-25 14:33N 30°08' W 093°19'0 0.0
2016-Apr-25 13:33N 30°08' W 093°19'0 0.0
2016-Apr-25 12:34N 30°08' W 093°19'0 0.0
2016-Apr-25 11:34N 30°08' W 093°19'0 0.0
2016-Apr-25 10:34N 30°08' W 093°19'0 0.0
2016-Apr-25 09:34N 30°08' W 093°19'0 0.0
2016-Apr-25 08:33N 30°08' W 093°19'0 0.0
2016-Apr-25 07:34N 30°08' W 093°19'0 0.0
2016-Apr-25 06:34N 30°08' W 093°19'0 0.0
2016-Apr-25 05:33N 30°08' W 093°19'0 0.0
2016-Apr-25 04:34N 30°08' W 093°19'0 0.0
2016-Apr-25 03:33N 30°08' W 093°19'0 0.0
2016-Apr-25 02:34N 30°08' W 093°19'0 0.0
2016-Apr-25 01:34N 30°08' W 093°19'0 0.0
2016-Apr-25 00:34N 30°08' W 093°19'0 0.1
2016-Apr-24 23:33N 30°08' W 093°19'0 0.2
2016-Apr-24 22:33N 30°08' W 093°20'0 0.0
2016-Apr-24 21:33N 30°08' W 093°20'4 3.7
2016-Apr-24 20:33N 30°04' W 093°20'2 1.8
2016-Apr-24 19:34N 30°04' W 093°22'0 0.0
2016-Apr-24 18:33N 30°04' W 093°22'0 0.0
2016-Apr-24 17:33N 30°04' W 093°22'0 0.0
2016-Apr-24 16:34N 30°04' W 093°22'0 0.0
2016-Apr-24 15:34N 30°04' W 093°22'0 0.0
2016-Apr-24 14:33N 30°04' W 093°22'0 0.0
2016-Apr-24 13:33N 30°04' W 093°22'1 1.4
2016-Apr-24 12:33N 30°04' W 093°21'3 3.1
2016-Apr-24 11:34N 30°06' W 093°18'2 2.0
2016-Apr-24 10:34N 30°05' W 093°20'2 2.4
2016-Apr-24 09:33N 30°04' W 093°22'5 5.1
2016-Apr-24 08:33N 30°04' W 093°28'6 5.7
2016-Apr-24 07:34N 30°04' W 093°35'5 5.1
2016-Apr-24 06:33N 30°04' W 093°41'4 4.4
2016-Apr-24 05:34N 30°01' W 093°45'6 4.7
2016-Apr-24 04:14N 29°58' W 093°51'1 0.1
2016-Apr-23 23:07N 29°57' W 093°52'1 1.8
2016-Apr-23 22:31N 29°56' W 093°52'56 6.9
2016-Apr-23 14:20N 29°24' W 094°45'11 6.4
2016-Apr-23 12:33N 29°32' W 094°54'10 9.6
2016-Apr-23 11:33N 29°41' W 094°59'8 7.6
2016-Apr-23 10:33N 29°45' W 095°06'1 1.3
2016-Apr-23 09:33N 29°44' W 095°08'0 0.0
2016-Apr-23 08:33N 29°44' W 095°08'0 0.0
2016-Apr-23 07:33N 29°44' W 095°08'0 0.0
2016-Apr-23 06:33N 29°44' W 095°08'0 0.0
2016-Apr-23 05:33N 29°44' W 095°08'0 0.0
2016-Apr-23 04:33N 29°44' W 095°08'0 0.0
2016-Apr-23 03:33N 29°44' W 095°08'0 0.0
2016-Apr-23 02:34N 29°44' W 095°08'0 0.0
2016-Apr-23 01:31N 29°44' W 095°08'0 0.0
2016-Apr-23 00:33N 29°44' W 095°08'0 0.0
2016-Apr-22 23:34N 29°44' W 095°08'0 0.0
2016-Apr-22 22:33N 29°44' W 095°08'0 0.1
2016-Apr-22 21:29N 29°44' W 095°08'0 0.0
2016-Apr-22 20:33N 29°44' W 095°08'0 0.0
2016-Apr-22 19:33N 29°44' W 095°08'0 0.0
2016-Apr-22 18:33N 29°44' W 095°08'0 0.0
2016-Apr-22 17:32N 29°44' W 095°08'0 0.0
2016-Apr-22 16:34N 29°44' W 095°08'0 0.0
2016-Apr-22 15:34N 29°44' W 095°08'0 0.0
2016-Apr-22 14:33N 29°44' W 095°08'0 0.0
2016-Apr-22 13:34N 29°44' W 095°08'0 0.0
2016-Apr-22 12:34N 29°44' W 095°08'0 0.0
2016-Apr-22 11:33N 29°44' W 095°08'0 0.0
2016-Apr-22 10:33N 29°44' W 095°08'0 0.0
2016-Apr-22 09:34N 29°44' W 095°08'0 0.0
2016-Apr-22 08:33N 29°44' W 095°08'0 0.0
2016-Apr-22 07:31N 29°44' W 095°08'0 0.0
2016-Apr-22 06:31N 29°44' W 095°08'0 0.0
2016-Apr-22 05:33N 29°44' W 095°08'0 0.0
2016-Apr-22 04:34N 29°44' W 095°08'0 0.0
2016-Apr-22 03:34N 29°44' W 095°08'0 0.0
2016-Apr-22 02:33N 29°44' W 095°08'0 0.0
2016-Apr-22 01:33N 29°44' W 095°08'0 0.0
2016-Apr-22 00:33N 29°44' W 095°08'0 0.0
2016-Apr-21 23:33N 29°44' W 095°08'0 0.0
2016-Apr-21 22:30N 29°44' W 095°08'3 3.5
2016-Apr-21 21:29N 29°46' W 095°04'4 4.5
2016-Apr-21 20:33N 29°42' W 095°01'5 4.8
2016-Apr-21 19:34N 29°38' W 094°58'7 7.0
2016-Apr-21 18:33N 29°32' W 094°54'7 6.4
2016-Apr-21 17:32N 29°27' W 094°50'  

Dump ship's entire track history